Xichang, China
Current Conditions -  °F | °C
As of 5:00 PM on Tuesday 21 Oct 2014 (Local Time) from ZPPP Reporting Station
Few Clouds Few Clouds  
Wind Chill: 68°   Ceiling: Unl
Heat Index: 68°   Visibility: 6mi
Dew Point: 41°   Wind: 9mph
Humidity: 37%   Direction: 10°N
Pressure: 30.3"   Gusts: NA
Location:  27.88°N, 102.3°E
Report Text: ZPPP 210900Z 01004MPS 330V040 9999 FEW026 20/05 Q1026 NOSIG
Loading
Personal Weather Stations






























Interactive Weather Map
Tropical Storm Tracking
New forecast layout! Learn more

10-Day Weather Forecast

Advertisements
Track Severe Weather on mobile